sensor_id;sensor_type;location;lat;lon;timestamp;pressure;altitude;pressure_sealevel;temperature;humidity
86145;BME280;76801;42.716;23.178;2024-03-23T00:55:44;94672.38;;;1.47;64.82
86145;BME280;76801;42.716;23.178;2024-03-23T00:58:09;94669.22;;;1.55;64.26
86145;BME280;76801;42.716;23.178;2024-03-23T01:00:34;94672.19;;;1.60;64.36
86145;BME280;76801;42.716;23.178;2024-03-23T01:03:00;94674.06;;;1.58;64.44
86145;BME280;76801;42.716;23.178;2024-03-23T01:05:26;94670.00;;;1.34;64.61
86145;BME280;76801;42.716;23.178;2024-03-23T01:07:51;94670.69;;;1.36;65.28
86145;BME280;76801;42.716;23.178;2024-03-23T01:10:17;94680.50;;;1.41;64.73
86145;BME280;76801;42.716;23.178;2024-03-23T01:12:42;94667.88;;;1.40;64.61
86145;BME280;76801;42.716;23.178;2024-03-23T01:15:08;94672.19;;;1.39;64.96
86145;BME280;76801;42.716;23.178;2024-03-23T01:17:33;94678.75;;;1.42;64.56
86145;BME280;76801;42.716;23.178;2024-03-23T01:19:59;94672.53;;;1.34;64.77
86145;BME280;76801;42.716;23.178;2024-03-23T01:22:24;94671.97;;;1.31;65.19
86145;BME280;76801;42.716;23.178;2024-03-23T01:24:49;94687.19;;;1.42;64.67
86145;BME280;76801;42.716;23.178;2024-03-23T01:27:15;94671.03;;;1.32;65.29
86145;BME280;76801;42.716;23.178;2024-03-23T01:29:40;94680.25;;;1.44;64.70
86145;BME280;76801;42.716;23.178;2024-03-23T01:32:06;94678.03;;;1.51;65.17
86145;BME280;76801;42.716;23.178;2024-03-23T01:34:32;94672.19;;;1.60;64.07
86145;BME280;76801;42.716;23.178;2024-03-23T01:36:57;94673.56;;;1.43;64.33
86145;BME280;76801;42.716;23.178;2024-03-23T01:39:23;94677.38;;;1.38;64.71
86145;BME280;76801;42.716;23.178;2024-03-23T01:41:48;94672.97;;;1.40;64.83
86145;BME280;76801;42.716;23.178;2024-03-23T01:44:13;94675.09;;;1.34;64.38
86145;BME280;76801;42.716;23.178;2024-03-23T01:46:40;94673.81;;;1.29;65.39
86145;BME280;76801;42.716;23.178;2024-03-23T01:49:07;94677.16;;;1.29;64.53
86145;BME280;76801;42.716;23.178;2024-03-23T01:51:33;94670.00;;;0.90;65.79
86145;BME280;76801;42.716;23.178;2024-03-23T01:54:00;94666.31;;;0.83;66.80
86145;BME280;76801;42.716;23.178;2024-03-23T01:56:31;94675.41;;;0.86;67.10
86145;BME280;76801;42.716;23.178;2024-03-23T01:58:59;94667.22;;;0.94;66.32
86145;BME280;76801;42.716;23.178;2024-03-23T02:01:24;94680.59;;;0.96;66.57
86145;BME280;76801;42.716;23.178;2024-03-23T02:03:50;94671.84;;;0.88;66.45
86145;BME280;76801;42.716;23.178;2024-03-23T02:06:15;94671.84;;;0.88;65.86
86145;BME280;76801;42.716;23.178;2024-03-23T02:08:41;94672.63;;;0.89;65.99
86145;BME280;76801;42.716;23.178;2024-03-23T02:11:06;94670.09;;;0.89;65.45
86145;BME280;76801;42.716;23.178;2024-03-23T02:13:32;94669.31;;;0.88;66.34
86145;BME280;76801;42.716;23.178;2024-03-23T02:15:58;94675.06;;;0.90;65.22
86145;BME280;76801;42.716;23.178;2024-03-23T02:18:23;94674.84;;;0.82;66.01
86145;BME280;76801;42.716;23.178;2024-03-23T02:20:48;94677.75;;;0.78;66.11
86145;BME280;76801;42.716;23.178;2024-03-23T02:23:15;94677.41;;;0.71;65.87
86145;BME280;76801;42.716;23.178;2024-03-23T02:25:40;94681.22;;;0.65;67.13
86145;BME280;76801;42.716;23.178;2024-03-23T02:28:06;94679.47;;;0.32;68.36
86145;BME280;76801;42.716;23.178;2024-03-23T02:30:31;94674.03;;;0.25;68.29
86145;BME280;76801;42.716;23.178;2024-03-23T02:32:57;94681.31;;;0.07;69.39
86145;BME280;76801;42.716;23.178;2024-03-23T02:35:22;94680.84;;;0.13;69.69
86145;BME280;76801;42.716;23.178;2024-03-23T02:37:47;94670.59;;;0.26;69.14
86145;BME280;76801;42.716;23.178;2024-03-23T02:40:16;94674.88;;;0.37;68.82
86145;BME280;76801;42.716;23.178;2024-03-23T02:42:42;94678.53;;;0.44;68.71
86145;BME280;76801;42.716;23.178;2024-03-23T02:45:08;94668.88;;;0.49;67.64
86145;BME280;76801;42.716;23.178;2024-03-23T02:47:33;94676.59;;;0.59;68.22
86145;BME280;76801;42.716;23.178;2024-03-23T02:49:59;94677.16;;;0.63;67.73
86145;BME280;76801;42.716;23.178;2024-03-23T02:52:24;94673.94;;;0.72;67.04
86145;BME280;76801;42.716;23.178;2024-03-23T02:54:50;94672.44;;;0.81;65.95
86145;BME280;76801;42.716;23.178;2024-03-23T02:57:15;94665.72;;;0.80;65.76
86145;BME280;76801;42.716;23.178;2024-03-23T02:59:41;94672.31;;;0.71;66.60
86145;BME280;76801;42.716;23.178;2024-03-23T03:02:06;94675.56;;;0.50;67.53
86145;BME280;76801;42.716;23.178;2024-03-23T03:04:32;94665.28;;;0.63;66.39
86145;BME280;76801;42.716;23.178;2024-03-23T03:06:57;94669.78;;;0.71;66.78
86145;BME280;76801;42.716;23.178;2024-03-23T03:09:23;94668.88;;;0.72;67.08
86145;BME280;76801;42.716;23.178;2024-03-23T03:11:49;94677.63;;;0.68;66.33
86145;BME280;76801;42.716;23.178;2024-03-23T03:14:14;94676.47;;;0.60;66.18
86145;BME280;76801;42.716;23.178;2024-03-23T03:16:39;94669.09;;;0.57;67.27
86145;BME280;76801;42.716;23.178;2024-03-23T03:19:05;94671.03;;;0.54;67.05
86145;BME280;76801;42.716;23.178;2024-03-23T03:21:31;94671.28;;;0.28;67.19
86145;BME280;76801;42.716;23.178;2024-03-23T03:23:57;94675.88;;;0.23;69.08
86145;BME280;76801;42.716;23.178;2024-03-23T03:26:23;94666.56;;;0.23;68.79
86145;BME280;76801;42.716;23.178;2024-03-23T03:28:48;94674.03;;;0.25;68.02
86145;BME280;76801;42.716;23.178;2024-03-23T03:31:17;94667.59;;;0.21;68.32
86145;BME280;76801;42.716;23.178;2024-03-23T03:33:43;94672.78;;;0.19;68.40
86145;BME280;76801;42.716;23.178;2024-03-23T03:36:09;94672.78;;;0.30;68.40
86145;BME280;76801;42.716;23.178;2024-03-23T03:38:34;94670.38;;;0.29;68.55
86145;BME280;76801;42.716;23.178;2024-03-23T03:41:01;94675.53;;;0.27;67.75
86145;BME280;76801;42.716;23.178;2024-03-23T03:43:26;94674.66;;;0.40;67.94
86145;BME280;76801;42.716;23.178;2024-03-23T03:45:53;94674.75;;;0.38;67.98
86145;BME280;76801;42.716;23.178;2024-03-23T03:48:18;94676.84;;;0.44;67.30
86145;BME280;76801;42.716;23.178;2024-03-23T03:50:44;94669.09;;;0.46;67.77
86145;BME280;76801;42.716;23.178;2024-03-23T03:53:09;94670.84;;;0.45;67.13
86145;BME280;76801;42.716;23.178;2024-03-23T03:55:34;94673.94;;;0.38;67.61
86145;BME280;76801;42.716;23.178;2024-03-23T03:58:00;94670.25;;;0.42;68.17
86145;BME280;76801;42.716;23.178;2024-03-23T04:00:25;94673.59;;;0.42;67.88
86145;BME280;76801;42.716;23.178;2024-03-23T04:02:50;94676.50;;;0.38;68.02
86145;BME280;76801;42.716;23.178;2024-03-23T04:05:16;94682.69;;;0.45;67.40
86145;BME280;76801;42.716;23.178;2024-03-23T04:07:42;94677.06;;;0.41;67.20
86145;BME280;76801;42.716;23.178;2024-03-23T04:10:07;94673.72;;;0.41;66.73
86145;BME280;76801;42.716;23.178;2024-03-23T04:12:34;94683.63;;;0.33;67.48
86145;BME280;76801;42.716;23.178;2024-03-23T04:14:59;94684.91;;;0.27;68.49
86145;BME280;76801;42.716;23.178;2024-03-23T04:17:24;94684.53;;;0.20;68.11
86145;BME280;76801;42.716;23.178;2024-03-23T04:19:50;94684.06;;;0.26;67.95
86145;BME280;76801;42.716;23.178;2024-03-23T04:22:17;94687.00;;;0.33;67.69
86145;BME280;76801;42.716;23.178;2024-03-23T04:24:43;94680.66;;;0.39;67.00
86145;BME280;76801;42.716;23.178;2024-03-23T04:27:08;94679.13;;;0.36;67.56
86145;BME280;76801;42.716;23.178;2024-03-23T04:29:34;94679.25;;;0.35;67.38
86145;BME280;76801;42.716;23.178;2024-03-23T04:31:59;94677.97;;;0.40;67.98
86145;BME280;76801;42.716;23.178;2024-03-23T04:34:26;94684.78;;;0.17;67.58
86145;BME280;76801;42.716;23.178;2024-03-23T04:36:51;94689.63;;;0.20;68.21
86145;BME280;76801;42.716;23.178;2024-03-23T04:39:16;94685.94;;;0.24;68.23
86145;BME280;76801;42.716;23.178;2024-03-23T04:41:42;94692.84;;;0.22;67.91
86145;BME280;76801;42.716;23.178;2024-03-23T04:44:07;94688.09;;;0.06;68.79
86145;BME280;76801;42.716;23.178;2024-03-23T04:46:33;94692.81;;;0.11;68.10
86145;BME280;76801;42.716;23.178;2024-03-23T04:48:58;94697.88;;;0.11;69.02
86145;BME280;76801;42.716;23.178;2024-03-23T04:51:23;94696.28;;;0.10;68.00
86145;BME280;76801;42.716;23.178;2024-03-23T04:53:49;94692.81;;;0.11;68.67
86145;BME280;76801;42.716;23.178;2024-03-23T04:56:16;94698.94;;;0.20;69.29
86145;BME280;76801;42.716;23.178;2024-03-23T04:58:42;94695.63;;;0.30;68.66
86145;BME280;76801;42.716;23.178;2024-03-23T05:01:08;94689.41;;;0.23;68.27
86145;BME280;76801;42.716;23.178;2024-03-23T05:03:33;94692.63;;;0.37;69.14
86145;BME280;76801;42.716;23.178;2024-03-23T05:05:59;94694.94;;;0.51;68.19
86145;BME280;76801;42.716;23.178;2024-03-23T05:08:24;94690.44;;;0.55;66.72
86145;BME280;76801;42.716;23.178;2024-03-23T05:10:50;94685.69;;;0.62;66.66
86145;BME280;76801;42.716;23.178;2024-03-23T05:13:15;94682.47;;;0.82;66.70
86145;BME280;76801;42.716;23.178;2024-03-23T05:15:41;94686.72;;;0.93;66.40
86145;BME280;76801;42.716;23.178;2024-03-23T05:18:06;94684.50;;;1.00;66.70
86145;BME280;76801;42.716;23.178;2024-03-23T05:20:32;94689.66;;;1.21;66.50
86145;BME280;76801;42.716;23.178;2024-03-23T05:22:57;94689.50;;;1.34;65.89
86145;BME280;76801;42.716;23.178;2024-03-23T05:25:23;94692.69;;;1.59;64.80
86145;BME280;76801;42.716;23.178;2024-03-23T05:27:48;94682.91;;;1.75;63.98
86145;BME280;76801;42.716;23.178;2024-03-23T05:30:14;94691.34;;;1.43;65.50
86145;BME280;76801;42.716;23.178;2024-03-23T05:32:40;94695.81;;;1.51;65.46
86145;BME280;76801;42.716;23.178;2024-03-23T05:35:07;94697.97;;;1.88;65.04
86145;BME280;76801;42.716;23.178;2024-03-23T05:37:33;94697.13;;;2.20;64.48
86145;BME280;76801;42.716;23.178;2024-03-23T05:40:02;94695.66;;;2.58;63.21
86145;BME280;76801;42.716;23.178;2024-03-23T05:42:28;94689.94;;;2.66;62.41
86145;BME280;76801;42.716;23.178;2024-03-23T05:44:54;94692.44;;;2.56;62.77
86145;BME280;76801;42.716;23.178;2024-03-23T05:47:19;94697.38;;;2.79;62.99
86145;BME280;76801;42.716;23.178;2024-03-23T05:49:46;94691.63;;;3.77;60.82
86145;BME280;76801;42.716;23.178;2024-03-23T05:52:11;94686.72;;;4.98;56.75
86145;BME280;76801;42.716;23.178;2024-03-23T05:54:36;94677.06;;;5.74;54.42
86145;BME280;76801;42.716;23.178;2024-03-23T05:57:03;94678.56;;;6.21;52.29
86145;BME280;76801;42.716;23.178;2024-03-23T05:59:28;94689.28;;;6.43;52.77
86145;BME280;76801;42.716;23.178;2024-03-23T06:01:54;94680.63;;;6.79;50.30
86145;BME280;76801;42.716;23.178;2024-03-23T06:04:19;94685.47;;;7.41;48.32
86145;BME280;76801;42.716;23.178;2024-03-23T06:06:45;94671.09;;;8.96;45.30
86145;BME280;76801;42.716;23.178;2024-03-23T06:09:10;94675.91;;;10.39;42.79
86145;BME280;76801;42.716;23.178;2024-03-23T06:11:36;94677.44;;;11.08;40.62
86145;BME280;76801;42.716;23.178;2024-03-23T06:14:02;94667.66;;;12.27;38.46
86145;BME280;76801;42.716;23.178;2024-03-23T06:16:27;94673.63;;;12.21;38.08
86145;BME280;76801;42.716;23.178;2024-03-23T06:18:53;94679.94;;;11.16;40.49
86145;BME280;76801;42.716;23.178;2024-03-23T06:21:20;94676.75;;;10.84;40.82
86145;BME280;76801;42.716;23.178;2024-03-23T06:23:45;94677.72;;;10.53;42.69
86145;BME280;76801;42.716;23.178;2024-03-23T06:26:20;94682.56;;;10.33;41.96
86145;BME280;76801;42.716;23.178;2024-03-23T06:28:48;94675.31;;;10.13;42.86
86145;BME280;76801;42.716;23.178;2024-03-23T06:31:13;94676.63;;;10.09;42.47
86145;BME280;76801;42.716;23.178;2024-03-23T06:33:39;94668.66;;;10.19;42.39
86145;BME280;76801;42.716;23.178;2024-03-23T06:36:07;94673.13;;;10.25;42.26
86145;BME280;76801;42.716;23.178;2024-03-23T06:38:33;94681.44;;;10.51;40.80
86145;BME280;76801;42.716;23.178;2024-03-23T06:41:02;94679.22;;;10.47;41.05
86145;BME280;76801;42.716;23.178;2024-03-23T06:43:27;94672.31;;;10.48;40.78
86145;BME280;76801;42.716;23.178;2024-03-23T06:45:54;94669.53;;;12.11;38.18
86145;BME280;76801;42.716;23.178;2024-03-23T06:48:20;94671.31;;;14.86;32.75
86145;BME280;76801;42.716;23.178;2024-03-23T06:50:46;94669.63;;;16.65;28.70
86145;BME280;76801;42.716;23.178;2024-03-23T06:53:12;94669.94;;;18.71;25.55
86145;BME280;76801;42.716;23.178;2024-03-23T06:55:38;94671.59;;;21.02;22.77
86145;BME280;76801;42.716;23.178;2024-03-23T06:58:03;94679.03;;;22.42;21.38
86145;BME280;76801;42.716;23.178;2024-03-23T07:00:29;94676.44;;;23.43;20.32
86145;BME280;76801;42.716;23.178;2024-03-23T07:02:55;94677.91;;;24.08;19.55
86145;BME280;76801;42.716;23.178;2024-03-23T07:05:20;94672.28;;;25.08;18.13
86145;BME280;76801;42.716;23.178;2024-03-23T07:07:45;94668.56;;;25.74;17.21
86145;BME280;76801;42.716;23.178;2024-03-23T07:10:11;94660.28;;;25.91;17.26
86145;BME280;76801;42.716;23.178;2024-03-23T07:12:37;94664.47;;;26.32;16.73
86145;BME280;76801;42.716;23.178;2024-03-23T07:15:02;94663.22;;;26.25;16.70
86145;BME280;76801;42.716;23.178;2024-03-23T07:17:28;94659.72;;;25.95;16.89
86145;BME280;76801;42.716;23.178;2024-03-23T07:19:54;94659.19;;;27.16;16.07
86145;BME280;76801;42.716;23.178;2024-03-23T07:22:19;94665.84;;;27.56;16.09
86145;BME280;76801;42.716;23.178;2024-03-23T07:24:44;94661.69;;;28.41;14.92
86145;BME280;76801;42.716;23.178;2024-03-23T07:27:10;94662.59;;;29.11;14.66
86145;BME280;76801;42.716;23.178;2024-03-23T07:29:45;94653.25;;;29.14;13.86
86145;BME280;76801;42.716;23.178;2024-03-23T07:32:10;94654.94;;;29.10;14.16
86145;BME280;76801;42.716;23.178;2024-03-23T07:34:37;94656.59;;;28.91;14.36
86145;BME280;76801;42.716;23.178;2024-03-23T07:37:04;94653.81;;;29.25;14.18
86145;BME280;76801;42.716;23.178;2024-03-23T07:39:30;94657.25;;;29.90;13.84
86145;BME280;76801;42.716;23.178;2024-03-23T07:41:59;94654.59;;;30.89;12.58
86145;BME280;76801;42.716;23.178;2024-03-23T07:44:24;94663.31;;;31.71;12.04
86145;BME280;76801;42.716;23.178;2024-03-23T07:46:50;94658.66;;;32.68;11.43
86145;BME280;76801;42.716;23.178;2024-03-23T07:49:15;94655.59;;;31.96;11.93
86145;BME280;76801;42.716;23.178;2024-03-23T07:51:41;94651.50;;;31.63;11.72
86145;BME280;76801;42.716;23.178;2024-03-23T07:54:06;94644.84;;;30.76;12.97
86145;BME280;76801;42.716;23.178;2024-03-23T07:56:32;94648.56;;;31.91;11.86
86145;BME280;76801;42.716;23.178;2024-03-23T07:58:59;94651.81;;;32.23;11.64
86145;BME280;76801;42.716;23.178;2024-03-23T08:01:24;94648.88;;;32.33;12.28
86145;BME280;76801;42.716;23.178;2024-03-23T08:03:49;94651.34;;;32.21;12.05
86145;BME280;76801;42.716;23.178;2024-03-23T08:06:16;94641.44;;;30.93;13.22
86145;BME280;76801;42.716;23.178;2024-03-23T08:08:44;94641.66;;;33.20;11.29
86145;BME280;76801;42.716;23.178;2024-03-23T08:11:10;94649.75;;;34.85;10.07
86145;BME280;76801;42.716;23.178;2024-03-23T08:13:44;94638.81;;;34.10;10.83
86145;BME280;76801;42.716;23.178;2024-03-23T08:16:10;94639.41;;;36.14;9.60
86145;BME280;76801;42.716;23.178;2024-03-23T08:18:44;94634.50;;;34.18;10.94
86145;BME280;76801;42.716;23.178;2024-03-23T08:21:10;94635.53;;;32.81;11.31
86145;BME280;76801;42.716;23.178;2024-03-23T08:23:36;94622.63;;;30.81;12.90
86145;BME280;76801;42.716;23.178;2024-03-23T08:28:29;94630.22;;;34.38;10.47
86145;BME280;76801;42.716;23.178;2024-03-23T08:30:55;94634.47;;;33.42;11.32
86145;BME280;76801;42.716;23.178;2024-03-23T08:33:22;94626.31;;;34.02;10.96
86145;BME280;76801;42.716;23.178;2024-03-23T08:36:09;94631.59;;;36.09;9.92
86145;BME280;76801;42.716;23.178;2024-03-23T08:38:35;94624.63;;;36.37;9.50
86145;BME280;76801;42.716;23.178;2024-03-23T08:41:08;94629.72;;;37.02;9.39
86145;BME280;76801;42.716;23.178;2024-03-23T08:43:41;94616.47;;;35.10;10.46
86145;BME280;76801;42.716;23.178;2024-03-23T08:46:07;94606.81;;;33.08;11.55
86145;BME280;76801;42.716;23.178;2024-03-23T08:48:37;94604.78;;;28.80;14.87
86145;BME280;76801;42.716;23.178;2024-03-23T08:51:07;94591.72;;;24.39;18.90
86145;BME280;76801;42.716;23.178;2024-03-23T08:53:33;94594.34;;;22.78;21.67
86145;BME280;76801;42.716;23.178;2024-03-23T08:55:59;94583.91;;;21.42;23.45
86145;BME280;76801;42.716;23.178;2024-03-23T08:58:27;94590.13;;;19.62;25.42
86145;BME280;76801;42.716;23.178;2024-03-23T09:00:53;94586.91;;;18.61;27.11
86145;BME280;76801;42.716;23.178;2024-03-23T09:03:21;94577.50;;;18.48;26.90
86145;BME280;76801;42.716;23.178;2024-03-23T09:05:51;94574.03;;;17.64;29.86
86145;BME280;76801;42.716;23.178;2024-03-23T09:08:16;94565.84;;;17.49;29.83
86145;BME280;76801;42.716;23.178;2024-03-23T09:10:42;94567.72;;;17.29;30.25
86145;BME280;76801;42.716;23.178;2024-03-23T09:13:08;94571.50;;;17.03;30.64
86145;BME280;76801;42.716;23.178;2024-03-23T09:15:45;94560.91;;;16.98;30.90
86145;BME280;76801;42.716;23.178;2024-03-23T09:18:10;94554.91;;;16.79;31.11
86145;BME280;76801;42.716;23.178;2024-03-23T09:20:35;94550.50;;;16.42;31.09
86145;BME280;76801;42.716;23.178;2024-03-23T09:23:01;94549.03;;;16.09;34.00
86145;BME280;76801;42.716;23.178;2024-03-23T09:25:26;94546.81;;;15.62;33.61
86145;BME280;76801;42.716;23.178;2024-03-23T09:27:52;94530.63;;;15.60;33.73
86145;BME280;76801;42.716;23.178;2024-03-23T09:30:17;94533.28;;;15.53;32.21
86145;BME280;76801;42.716;23.178;2024-03-23T09:32:43;94525.56;;;15.65;33.98
86145;BME280;76801;42.716;23.178;2024-03-23T09:35:10;94527.84;;;15.87;32.88
86145;BME280;76801;42.716;23.178;2024-03-23T09:37:35;94529.00;;;15.91;32.31
86145;BME280;76801;42.716;23.178;2024-03-23T09:40:00;94522.81;;;16.11;32.96
86145;BME280;76801;42.716;23.178;2024-03-23T09:42:26;94515.09;;;16.22;32.54
86145;BME280;76801;42.716;23.178;2024-03-23T09:44:51;94507.72;;;16.19;32.53
86145;BME280;76801;42.716;23.178;2024-03-23T09:47:17;94504.97;;;16.14;33.65
86145;BME280;76801;42.716;23.178;2024-03-23T09:49:43;94499.91;;;16.19;32.91
86145;BME280;76801;42.716;23.178;2024-03-23T09:52:09;94497.00;;;16.28;33.12
86145;BME280;76801;42.716;23.178;2024-03-23T09:54:35;94495.72;;;16.56;32.41
86145;BME280;76801;42.716;23.178;2024-03-23T09:57:01;94485.22;;;16.62;31.87
86145;BME280;76801;42.716;23.178;2024-03-23T09:59:26;94486.03;;;16.75;32.45
86145;BME280;76801;42.716;23.178;2024-03-23T10:01:53;94484.19;;;16.94;31.29
86145;BME280;76801;42.716;23.178;2024-03-23T10:04:40;94482.34;;;17.13;31.48
86145;BME280;76801;42.716;23.178;2024-03-23T10:07:13;94469.34;;;17.25;30.11
86145;BME280;76801;42.716;23.178;2024-03-23T10:09:39;94472.41;;;17.22;28.40
86145;BME280;76801;42.716;23.178;2024-03-23T10:12:12;94466.75;;;16.94;28.50
86145;BME280;76801;42.716;23.178;2024-03-23T10:14:39;94459.00;;;16.76;29.07
86145;BME280;76801;42.716;23.178;2024-03-23T10:17:18;94459.94;;;16.63;27.96
86145;BME280;76801;42.716;23.178;2024-03-23T10:19:48;94457.13;;;16.64;27.31
86145;BME280;76801;42.716;23.178;2024-03-23T10:22:19;94445.38;;;16.43;28.05
86145;BME280;76801;42.716;23.178;2024-03-23T10:24:45;94448.31;;;16.16;29.67
86145;BME280;76801;42.716;23.178;2024-03-23T10:27:18;94440.88;;;16.50;30.44
86145;BME280;76801;42.716;23.178;2024-03-23T10:29:45;94445.75;;;17.08;25.79
86145;BME280;76801;42.716;23.178;2024-03-23T10:32:11;94434.53;;;17.19;25.20
86145;BME280;76801;42.716;23.178;2024-03-23T10:34:37;94440.47;;;17.50;24.18
86145;BME280;76801;42.716;23.178;2024-03-23T10:37:03;94430.03;;;17.74;23.06
86145;BME280;76801;42.716;23.178;2024-03-23T10:39:36;94417.34;;;17.66;22.18
86145;BME280;76801;42.716;23.178;2024-03-23T10:42:03;94418.81;;;17.73;22.53
86145;BME280;76801;42.716;23.178;2024-03-23T10:44:30;94412.00;;;17.84;21.67
86145;BME280;76801;42.716;23.178;2024-03-23T10:46:57;94401.06;;;17.87;21.72
86145;BME280;76801;42.716;23.178;2024-03-23T10:49:30;94398.91;;;17.96;22.25
86145;BME280;76801;42.716;23.178;2024-03-23T10:51:58;94402.22;;;17.68;21.60
86145;BME280;76801;42.716;23.178;2024-03-23T10:54:25;94387.84;;;17.06;22.04
86145;BME280;76801;42.716;23.178;2024-03-23T10:56:53;94386.03;;;17.18;23.45
86145;BME280;76801;42.716;23.178;2024-03-23T10:59:21;94378.56;;;17.57;22.78
86145;BME280;76801;42.716;23.178;2024-03-23T11:01:57;94370.78;;;17.86;22.59
86145;BME280;76801;42.716;23.178;2024-03-23T11:04:36;94368.84;;;17.94;21.49
86145;BME280;76801;42.716;23.178;2024-03-23T11:07:28;94368.75;;;17.88;21.72
86145;BME280;76801;42.716;23.178;2024-03-23T11:09:54;94350.78;;;17.51;21.83
86145;BME280;76801;42.716;23.178;2024-03-23T11:14:45;94343.69;;;17.99;21.62
86145;BME280;76801;42.716;23.178;2024-03-23T11:17:11;94345.56;;;18.16;21.76
86145;BME280;76801;42.716;23.178;2024-03-23T11:19:37;94337.25;;;17.78;21.90
86145;BME280;76801;42.716;23.178;2024-03-23T11:22:03;94334.47;;;17.32;22.04
86145;BME280;76801;42.716;23.178;2024-03-23T11:24:30;94330.91;;;17.74;22.91
86145;BME280;76801;42.716;23.178;2024-03-23T11:26:55;94325.50;;;18.04;21.85
86145;BME280;76801;42.716;23.178;2024-03-23T11:29:21;94328.56;;;18.30;22.51
86145;BME280;76801;42.716;23.178;2024-03-23T11:31:48;94313.09;;;18.41;21.93
86145;BME280;76801;42.716;23.178;2024-03-23T11:34:15;94308.81;;;18.34;21.27
86145;BME280;76801;42.716;23.178;2024-03-23T11:36:41;94309.53;;;18.30;21.35
86145;BME280;76801;42.716;23.178;2024-03-23T11:39:15;94305.09;;;18.30;21.12
86145;BME280;76801;42.716;23.178;2024-03-23T11:44:23;94294.00;;;18.23;20.98
86145;BME280;76801;42.716;23.178;2024-03-23T11:46:49;94284.72;;;18.61;21.86
86145;BME280;76801;42.716;23.178;2024-03-23T11:49:25;94291.50;;;18.62;19.68
86145;BME280;76801;42.716;23.178;2024-03-23T11:51:52;94279.16;;;18.41;20.45
86145;BME280;76801;42.716;23.178;2024-03-23T11:54:23;94275.63;;;18.18;21.19
86145;BME280;76801;42.716;23.178;2024-03-23T11:57:00;94276.47;;;18.35;20.15
86145;BME280;76801;42.716;23.178;2024-03-23T11:59:36;94262.44;;;18.25;19.86
86145;BME280;76801;42.716;23.178;2024-03-23T12:02:12;94258.50;;;17.93;19.98
86145;BME280;76801;42.716;23.178;2024-03-23T12:04:41;94247.63;;;17.84;19.87
86145;BME280;76801;42.716;23.178;2024-03-23T12:09:36;94243.94;;;17.97;20.42
86145;BME280;76801;42.716;23.178;2024-03-23T12:12:10;94238.22;;;18.12;21.04
86145;BME280;76801;42.716;23.178;2024-03-23T12:14:35;94235.88;;;18.28;20.11
86145;BME280;76801;42.716;23.178;2024-03-23T12:17:11;94230.81;;;18.21;20.36
86145;BME280;76801;42.716;23.178;2024-03-23T12:19:37;94236.09;;;18.43;20.37
86145;BME280;76801;42.716;23.178;2024-03-23T12:22:04;94231.59;;;18.56;19.51
86145;BME280;76801;42.716;23.178;2024-03-23T12:24:29;94224.91;;;18.82;19.83
86145;BME280;76801;42.716;23.178;2024-03-23T12:26:59;94222.44;;;19.09;18.86
86145;BME280;76801;42.716;23.178;2024-03-23T12:29:27;94217.34;;;19.42;19.76
86145;BME280;76801;42.716;23.178;2024-03-23T12:31:52;94215.13;;;19.56;19.70
86145;BME280;76801;42.716;23.178;2024-03-23T12:34:18;94204.66;;;19.78;18.29
86145;BME280;76801;42.716;23.178;2024-03-23T12:36:43;94206.75;;;19.76;18.22
86145;BME280;76801;42.716;23.178;2024-03-23T12:39:09;94199.59;;;19.22;18.03
86145;BME280;76801;42.716;23.178;2024-03-23T12:41:34;94194.25;;;19.11;18.67
86145;BME280;76801;42.716;23.178;2024-03-23T12:43:59;94186.25;;;18.62;19.18
86145;BME280;76801;42.716;23.178;2024-03-23T12:46:25;94194.41;;;18.48;18.92
86145;BME280;76801;42.716;23.178;2024-03-23T12:48:50;94189.19;;;18.14;18.83
86145;BME280;76801;42.716;23.178;2024-03-23T12:51:15;94171.25;;;17.89;18.85
86145;BME280;76801;42.716;23.178;2024-03-23T12:53:41;94179.78;;;18.13;20.04
86145;BME280;76801;42.716;23.178;2024-03-23T12:56:06;94181.28;;;18.09;19.58
86145;BME280;76801;42.716;23.178;2024-03-23T12:58:31;94169.66;;;18.34;20.73
86145;BME280;76801;42.716;23.178;2024-03-23T13:00:58;94164.34;;;18.12;19.68
86145;BME280;76801;42.716;23.178;2024-03-23T13:03:23;94177.72;;;18.49;19.73
86145;BME280;76801;42.716;23.178;2024-03-23T13:05:52;94162.03;;;18.49;19.61
86145;BME280;76801;42.716;23.178;2024-03-23T13:08:17;94162.03;;;18.89;19.33
86145;BME280;76801;42.716;23.178;2024-03-23T13:10:43;94156.88;;;18.94;19.08
86145;BME280;76801;42.716;23.178;2024-03-23T13:13:10;94157.41;;;19.35;19.99
86145;BME280;76801;42.716;23.178;2024-03-23T13:15:35;94151.03;;;19.81;19.42
86145;BME280;76801;42.716;23.178;2024-03-23T13:18:01;94148.75;;;20.17;18.72
86145;BME280;76801;42.716;23.178;2024-03-23T13:20:26;94138.78;;;20.57;18.09
86145;BME280;76801;42.716;23.178;2024-03-23T13:22:51;94133.25;;;21.01;18.05
86145;BME280;76801;42.716;23.178;2024-03-23T13:25:17;94124.00;;;21.57;18.35
86145;BME280;76801;42.716;23.178;2024-03-23T13:27:44;94130.28;;;21.46;17.15
86145;BME280;76801;42.716;23.178;2024-03-23T13:30:09;94127.75;;;21.97;17.20
86145;BME280;76801;42.716;23.178;2024-03-23T13:32:35;94123.78;;;22.57;16.19
86145;BME280;76801;42.716;23.178;2024-03-23T13:35:00;94121.69;;;22.38;17.64
86145;BME280;76801;42.716;23.178;2024-03-23T13:37:26;94119.78;;;23.46;15.91
86145;BME280;76801;42.716;23.178;2024-03-23T13:39:52;94116.56;;;23.99;14.87
86145;BME280;76801;42.716;23.178;2024-03-23T13:42:17;94114.50;;;25.66;14.39
86145;BME280;76801;42.716;23.178;2024-03-23T13:44:43;94116.97;;;27.46;13.97
86145;BME280;76801;42.716;23.178;2024-03-23T13:47:08;94119.22;;;29.15;11.95
86145;BME280;76801;42.716;23.178;2024-03-23T13:49:34;94117.25;;;29.38;10.91
86145;BME280;76801;42.716;23.178;2024-03-23T13:52:05;94101.25;;;30.44;10.63
86145;BME280;76801;42.716;23.178;2024-03-23T13:54:33;94105.50;;;31.65;9.81
86145;BME280;76801;42.716;23.178;2024-03-23T13:56:59;94101.78;;;31.36;9.68